Aviation Digital Data Service (ADDS)

Output produced by METARs form (0947 UTC 30 September 2014)
found at http://aviationweather.gov/adds/metars/
 
KBAF 300527Z 3006/0106 05009KT P6SM OVC012 
     FM301300 04004KT 6SM -DZ BR OVC015 
     FM301500 04005KT P6SM -DZ OVC025 
     FM301700 06005KT P6SM -DZ BKN050 
     FM302200 07005KT P6SM SCT050 
     FM010500 01005KT P6SM BKN050